Decoded Metar for LFSB (MULHOUSE in FRANCE) (IATA:MLH) | Meteo·Mobile Aviation Weather
aviador You're here:

LFSB Decoded Metar

MULHOUSE in FRANCE
Report Time2018-12-16 17:00:00
UTC Time2018-12-16 17:30:38
Flight Rules ifr IFR
Wind120° at 05 kt
W.Decomp.*RWY 15: 4.3 kt HW 2.6 kt LCW
RWY 08: 3.9 kt HW 3.1 kt RCW
W.Rank120° ranks 19
Current wind is below 120° avg. (5.6)
Visibility9999 m
Phenomena:N/A
Clouds:Overcast 007 Hf
Ceiling700 ft
Temp04°C (ISA -9)
Dew Point04°C (100% RH)
AAT0.9°C
QNH1014 hPa
Density Alt-148 ft
Elevation889 ft
Report Wrong Elevation
Raw Report
LFSB 161700Z 12005KT 9999 OVC007 04/04 Q1014 TEMPO 3000 BR=

Extra information for LFSB:More info

Metar Taf Metar & Taf Last 4 Metars F.Rules Stats Wind Profile Meteogram Temp Stats Airport Information Weather charts Add Link Nearby VenuesMetar ALERT Operation Metar Decoded Social comments